Time;durP1;ratioP1;P1;durP2;ratioP2;P2;SDS_P1;SDS_P2;PMS_P1;PMS_P2;Temp;Humidity;BMP_temperature;BMP_pressure;BME280_temperature;BME280_humidity;BME280_pressure;Samples;Min_cycle;Max_cycle;Signal;HPM_P1;HPM_P2
2023/10/16 17:39:34;;;;;;;;;11.75;10.50;;;;;;;;5040922;28;72852;-63
2023/10/16 17:41:59;;;;;;;;;11.50;9.75;;;;;;;;5055095;28;46820;-63
2023/10/16 17:44:26;;;;;;;;;9.50;9.25;;;;;;;;5055447;28;45347;-63
2023/10/16 17:46:51;;;;;;;;;10.75;9.00;;;;;;;;5055370;28;45309;-62
2023/10/16 17:49:20;;;;;;;;;13.25;12.25;;;;;;;;5056021;28;45516;-63
2023/10/16 17:51:45;;;;;;;;;13.00;11.50;;;;;;;;5056050;28;46080;-64
2023/10/16 17:54:14;;;;;;;;;19.50;14.50;;;;;;;;5055461;28;45369;-64
2023/10/16 17:56:41;;;;;;;;;16.00;16.00;;;;;;;;5056162;28;45528;-63
2023/10/16 17:59:07;;;;;;;;;16.25;13.00;;;;;;;;5055736;28;45345;-64
2023/10/16 18:01:33;;;;;;;;;13.25;12.75;;;;;;;;5055528;28;46474;-62
2023/10/16 18:03:58;;;;;;;;;10.00;7.75;;;;;;;;5055652;28;45442;-62
2023/10/16 18:06:23;;;;;;;;;11.25;10.50;;;;;;;;5055014;28;45428;-63
2023/10/16 18:08:49;;;;;;;;;10.50;9.75;;;;;;;;5055547;28;45354;-63
2023/10/16 18:11:14;;;;;;;;;12.75;11.50;;;;;;;;5055979;28;45500;-63
2023/10/16 18:13:43;;;;;;;;;11.25;8.50;;;;;;;;5055191;28;45430;-63
2023/10/16 18:16:09;;;;;;;;;11.75;10.75;;;;;;;;5055822;28;45423;-63
2023/10/16 18:18:34;;;;;;;;;10.75;10.75;;;;;;;;5055268;28;45359;-63
2023/10/16 18:21:03;;;;;;;;;10.25;10.25;;;;;;;;5055651;28;45335;-63
2023/10/16 18:23:34;;;;;;;;;8.75;8.75;;;;;;;;5054542;28;45377;-63
2023/10/16 18:25:59;;;;;;;;;10.75;10.00;;;;;;;;5056053;28;45398;-63
2023/10/16 18:28:25;;;;;;;;;14.00;11.00;;;;;;;;5055428;28;45438;-63
2023/10/16 18:30:53;;;;;;;;;10.75;10.75;;;;;;;;5055586;28;45424;-63
2023/10/16 18:33:19;;;;;;;;;11.00;10.50;;;;;;;;5055216;28;45412;-64
2023/10/16 18:35:44;;;;;;;;;13.75;12.75;;;;;;;;5055401;28;45461;-63
2023/10/16 18:38:13;;;;;;;;;10.00;10.00;;;;;;;;5061150;28;45409;-63
2023/10/16 18:40:40;;;;;;;;;13.75;13.25;;;;;;;;5074768;28;45414;-63
2023/10/16 18:43:07;;;;;;;;;15.75;13.50;;;;;;;;5075773;28;45483;-63
2023/10/16 18:45:34;;;;;;;;;11.50;11.25;;;;;;;;5057305;28;45505;-63
2023/10/16 18:47:59;;;;;;;;;13.00;12.75;;;;;;;;5075033;28;45430;-63
2023/10/16 18:50:24;;;;;;;;;17.25;16.00;;;;;;;;5075364;28;46490;-63
2023/10/16 18:52:50;;;;;;;;;15.00;14.00;;;;;;;;5075349;28;45362;-63
2023/10/16 18:55:15;;;;;;;;;13.75;13.25;;;;;;;;5075660;28;45422;-63
2023/10/16 18:57:40;;;;;;;;;14.00;13.75;;;;;;;;5075269;28;45474;-63
2023/10/16 19:00:08;;;;;;;;;17.75;15.75;;;;;;;;5074712;28;45719;-63
2023/10/16 19:02:33;;;;;;;;;13.50;13.50;;;;;;;;5056805;28;45326;-63
2023/10/16 19:04:58;;;;;;;;;13.50;12.00;;;;;;;;5075536;28;45618;-63
2023/10/16 19:07:24;;;;;;;;;12.25;10.75;;;;;;;;5075076;28;45438;-63
2023/10/16 19:09:49;;;;;;;;;13.25;10.75;;;;;;;;5075259;28;46099;-63
2023/10/16 19:12:15;;;;;;;;;9.75;8.75;;;;;;;;5075172;28;45344;-63
2023/10/16 19:14:40;;;;;;;;;11.75;10.75;;;;;;;;5075300;28;45452;-63
2023/10/16 19:17:06;;;;;;;;;11.25;11.25;;;;;;;;5075044;28;45387;-63
2023/10/16 19:19:31;;;;;;;;;7.00;7.00;;;;;;;;5075143;28;45398;-63
2023/10/16 19:21:56;;;;;;;;;10.75;10.75;;;;;;;;5074886;28;45425;-63
2023/10/16 19:24:23;;;;;;;;;12.50;10.00;;;;;;;;5074889;28;45483;-63
2023/10/16 19:26:48;;;;;;;;;13.75;11.50;;;;;;;;5074821;28;45499;-63
2023/10/16 19:29:14;;;;;;;;;13.75;12.00;;;;;;;;5074888;28;45674;-63
2023/10/16 19:31:41;;;;;;;;;14.00;12.50;;;;;;;;5074857;28;45417;-63
2023/10/16 19:34:06;;;;;;;;;12.00;10.25;;;;;;;;5056381;28;45428;-63
2023/10/16 19:36:31;;;;;;;;;12.50;12.50;;;;;;;;5074739;28;45564;-63
2023/10/16 19:38:57;;;;;;;;;43.33;34.67;;;;;;;;5074179;28;45895;-63
2023/10/16 19:41:22;;;;;;;;;15.25;14.00;;;;;;;;5074720;28;45437;-63
2023/10/16 19:43:47;;;;;;;;;15.75;12.75;;;;;;;;5075340;28;45365;-63
2023/10/16 19:46:14;;;;;;;;;13.50;11.00;;;;;;;;5069087;28;45366;-63
2023/10/16 19:48:39;;;;;;;;;12.50;12.50;;;;;;;;5054485;28;45413;-63
2023/10/16 19:51:10;;;;;;;;;15.00;12.75;;;;;;;;5054514;28;45306;-63
2023/10/16 19:53:36;;;;;;;;;12.00;11.25;;;;;;;;5054318;28;45463;-63
2023/10/16 19:56:02;;;;;;;;;17.00;14.75;;;;;;;;5054116;28;45393;-63
2023/10/16 19:58:29;;;;;;;;;12.00;12.00;;;;;;;;5054511;28;46005;-63
2023/10/16 20:00:54;;;;;;;;;14.25;13.50;;;;;;;;5036442;28;45330;-63
2023/10/16 20:03:20;;;;;;;;;14.50;13.00;;;;;;;;5054581;28;45367;-63
2023/10/16 20:05:45;;;;;;;;;11.75;11.75;;;;;;;;5054447;28;45602;-63
2023/10/16 20:08:11;;;;;;;;;13.00;11.25;;;;;;;;5054144;28;45419;-63
2023/10/16 20:10:39;;;;;;;;;13.50;11.00;;;;;;;;5054403;28;45307;-63
2023/10/16 20:13:05;;;;;;;;;13.25;11.75;;;;;;;;5054174;28;45447;-63
2023/10/16 20:15:32;;;;;;;;;9.00;9.00;;;;;;;;5035944;28;45556;-63
2023/10/16 20:17:57;;;;;;;;;13.25;11.75;;;;;;;;5053671;28;46938;-63
2023/10/16 20:20:23;;;;;;;;;12.00;10.50;;;;;;;;5054107;28;45364;-63
2023/10/16 20:22:55;;;;;;;;;11.50;10.50;;;;;;;;5053887;28;45417;-63
2023/10/16 20:25:21;;;;;;;;;10.50;10.50;;;;;;;;5035852;28;45414;-63
2023/10/16 20:27:47;;;;;;;;;12.00;12.00;;;;;;;;5053882;28;45599;-62
2023/10/16 20:30:13;;;;;;;;;12.50;11.50;;;;;;;;5055861;28;45338;-63
2023/10/16 20:32:38;;;;;;;;;13.25;11.00;;;;;;;;5057577;28;45340;-63
2023/10/16 20:35:04;;;;;;;;;10.75;9.75;;;;;;;;5057588;28;45341;-65
2023/10/16 20:37:29;;;;;;;;;15.25;10.50;;;;;;;;5057166;28;45362;-63
2023/10/16 20:39:55;;;;;;;;;13.00;7.50;;;;;;;;5077950;28;45322;-63
2023/10/16 20:42:20;;;;;;;;;12.50;12.50;;;;;;;;5077912;28;45305;-63
2023/10/16 20:44:46;;;;;;;;;15.75;12.00;;;;;;;;5077509;28;45394;-63
2023/10/16 20:47:11;;;;;;;;;10.00;9.00;;;;;;;;5077457;28;46379;-63
2023/10/16 20:49:36;;;;;;;;;10.75;9.75;;;;;;;;5077667;28;45413;-63
2023/10/16 20:52:02;;;;;;;;;13.50;9.75;;;;;;;;5077688;28;45320;-63
2023/10/16 20:54:27;;;;;;;;;9.00;9.00;;;;;;;;5076961;28;45505;-63
2023/10/16 20:56:52;;;;;;;;;12.50;10.75;;;;;;;;5077058;28;45564;-63
2023/10/16 20:59:18;;;;;;;;;13.75;11.50;;;;;;;;5077290;28;45421;-63
2023/10/16 21:01:43;;;;;;;;;12.00;12.00;;;;;;;;5077418;28;45365;-63
2023/10/16 21:04:10;;;;;;;;;10.00;10.00;;;;;;;;5077344;28;45401;-63
2023/10/16 21:06:35;;;;;;;;;14.25;10.75;;;;;;;;5077196;28;46241;-63
2023/10/16 21:09:01;;;;;;;;;14.25;10.25;;;;;;;;5058583;28;45427;-63
2023/10/16 21:11:26;;;;;;;;;14.75;13.00;;;;;;;;5077690;28;45396;-63
2023/10/16 21:13:51;;;;;;;;;13.75;11.75;;;;;;;;5077453;28;45410;-63
2023/10/16 21:16:17;;;;;;;;;14.00;11.00;;;;;;;;5058863;28;45725;-63
2023/10/16 21:18:42;;;;;;;;;12.00;11.00;;;;;;;;5077110;28;45391;-63
2023/10/16 21:21:14;;;;;;;;;11.25;11.25;;;;;;;;5058968;28;45346;-63
2023/10/16 21:23:40;;;;;;;;;13.00;9.50;;;;;;;;5076766;28;45474;-63
2023/10/16 21:26:11;;;;;;;;;11.50;11.00;;;;;;;;5076907;28;46457;-63
2023/10/16 21:28:37;;;;;;;;;10.50;9.50;;;;;;;;5077110;28;45342;-63
2023/10/16 21:31:02;;;;;;;;;10.50;9.75;;;;;;;;5058798;28;45373;-63
2023/10/16 21:33:27;;;;;;;;;11.00;10.00;;;;;;;;5058425;28;45449;-63
2023/10/16 21:36:00;;;;;;;;;13.25;10.50;;;;;;;;5076856;28;45576;-63
2023/10/16 21:38:25;;;;;;;;;13.00;10.50;;;;;;;;5076539;28;45478;-63
2023/10/16 21:40:57;;;;;;;;;10.00;10.00;;;;;;;;5076288;28;45345;-63
2023/10/16 21:43:24;;;;;;;;;11.75;9.25;;;;;;;;5076519;28;45406;-63
2023/10/16 21:45:50;;;;;;;;;9.25;9.25;;;;;;;;5076291;28;46133;-63
2023/10/16 21:48:15;;;;;;;;;10.50;10.50;;;;;;;;5076792;28;45302;-63
2023/10/16 21:50:40;;;;;;;;;11.25;11.25;;;;;;;;5076921;28;45365;-63
2023/10/16 21:53:06;;;;;;;;;9.00;9.00;;;;;;;;5074176;28;45595;-63
2023/10/16 21:55:31;;;;;;;;;9.00;9.00;;;;;;;;5076624;28;45367;-63
2023/10/16 21:57:56;;;;;;;;;10.00;9.00;;;;;;;;5076601;28;45345;-63
2023/10/16 22:00:38;;;;;;;;;11.00;8.00;;;;;;;;5076876;28;45451;-63
2023/10/16 22:03:04;;;;;;;;;11.00;9.75;;;;;;;;5076107;28;45474;-63
2023/10/16 22:05:34;;;;;;;;;8.50;8.50;;;;;;;;5076219;28;47504;-63
2023/10/16 22:08:00;;;;;;;;;11.50;10.00;;;;;;;;5076116;28;45340;-63
2023/10/16 22:10:25;;;;;;;;;9.00;9.00;;;;;;;;5076552;28;45464;-63
2023/10/16 22:12:50;;;;;;;;;10.50;7.25;;;;;;;;5076530;28;45486;-64
2023/10/16 22:15:18;;;;;;;;;10.75;10.50;;;;;;;;5076018;28;45431;-63
2023/10/16 22:17:44;;;;;;;;;11.25;9.75;;;;;;;;5076550;28;45298;-63
2023/10/16 22:20:11;;;;;;;;;12.25;10.00;;;;;;;;5076435;28;45546;-63
2023/10/16 22:22:36;;;;;;;;;11.00;10.00;;;;;;;;5076158;28;45337;-64
2023/10/16 22:25:04;;;;;;;;;10.00;8.75;;;;;;;;5076169;28;46594;-63
2023/10/16 22:27:31;;;;;;;;;9.25;9.25;;;;;;;;5075747;28;45392;-63
2023/10/16 22:29:56;;;;;;;;;8.25;8.25;;;;;;;;5076246;28;45404;-63
2023/10/16 22:32:22;;;;;;;;;8.50;8.50;;;;;;;;5076105;28;45637;-63
2023/10/16 22:34:47;;;;;;;;;9.00;9.00;;;;;;;;5075672;28;46373;-63
2023/10/16 22:37:12;;;;;;;;;7.00;7.00;;;;;;;;5075811;28;45479;-63
2023/10/16 22:39:38;;;;;;;;;1.00;0.00;;;;;;;;5076204;28;45406;-63
2023/10/16 22:42:03;;;;;;;;;9.00;9.00;;;;;;;;5057624;28;45343;-63
2023/10/16 22:44:28;;;;;;;;;8.00;8.00;;;;;;;;5075718;28;46353;-63
2023/10/16 22:46:54;;;;;;;;;13.00;11.00;;;;;;;;5075756;28;45340;-63
2023/10/16 22:49:20;;;;;;;;;10.50;7.00;;;;;;;;5076249;28;45365;-63
2023/10/16 22:51:45;;;;;;;;;10.00;9.00;;;;;;;;5075935;28;45388;-63
2023/10/16 22:54:11;;;;;;;;;8.50;8.00;;;;;;;;5074679;28;45342;-63
2023/10/16 22:56:37;;;;;;;;;9.25;7.75;;;;;;;;5076023;28;45437;-63
2023/10/16 22:59:02;;;;;;;;;9.75;7.50;;;;;;;;5075890;28;45491;-63
2023/10/16 23:01:28;;;;;;;;;6.00;5.25;;;;;;;;5057380;28;45576;-62
2023/10/16 23:03:53;;;;;;;;;11.00;9.75;;;;;;;;5057157;28;46736;-63
2023/10/16 23:06:18;;;;;;;;;7.50;7.00;;;;;;;;5075598;28;45463;-62
2023/10/16 23:08:52;;;;;;;;;8.50;8.00;;;;;;;;5075279;28;45435;-63
2023/10/16 23:11:23;;;;;;;;;10.25;10.00;;;;;;;;5075247;28;45382;-63
2023/10/16 23:13:53;;;;;;;;;10.00;9.25;;;;;;;;5074945;28;47386;-63
2023/10/16 23:16:21;;;;;;;;;10.25;9.25;;;;;;;;5075176;28;45433;-63
2023/10/16 23:18:46;;;;;;;;;9.00;8.75;;;;;;;;5075647;28;45486;-63
2023/10/16 23:21:11;;;;;;;;;7.75;7.75;;;;;;;;5075206;28;45482;-62
2023/10/16 23:23:37;;;;;;;;;9.50;9.50;;;;;;;;5075018;28;45483;-63
2023/10/16 23:26:02;;;;;;;;;7.00;6.00;;;;;;;;5075205;28;45365;-63
2023/10/16 23:28:28;;;;;;;;;9.50;8.50;;;;;;;;5075208;28;45392;-63
2023/10/16 23:30:57;;;;;;;;;9.00;8.00;;;;;;;;5075240;28;45298;-63
2023/10/16 23:33:24;;;;;;;;;8.00;8.00;;;;;;;;5074950;28;46128;-63
2023/10/16 23:35:58;;;;;;;;;7.00;7.00;;;;;;;;5075001;28;45383;-63
2023/10/16 23:38:24;;;;;;;;;10.00;8.75;;;;;;;;5074825;28;45432;-63
2023/10/16 23:41:02;;;;;;;;;11.50;9.75;;;;;;;;5075285;28;45482;-63
2023/10/16 23:43:45;;;;;;;;;10.50;8.00;;;;;;;;5075057;28;46192;-63
2023/10/16 23:46:10;;;;;;;;;9.25;9.25;;;;;;;;5069839;28;45459;-63
2023/10/16 23:48:36;;;;;;;;;10.00;9.00;;;;;;;;5054651;28;45391;-63
2023/10/16 23:51:09;;;;;;;;;8.00;8.00;;;;;;;;5054820;28;45396;-63
2023/10/16 23:53:47;;;;;;;;;10.00;8.00;;;;;;;;5036252;28;47633;-63
2023/10/16 23:56:20;;;;;;;;;10.75;10.00;;;;;;;;5054329;28;45489;-62
2023/10/16 23:59:08;;;;;;;;;6.00;6.00;;;;;;;;5054768;28;45384;-63
